OMAD/AZI METAR and TAF weather

Enter ICAO airport designator
Station Type Date Time Source
OMAD METAR 2021/09/28 17:00 UTC NOAA

OMAD 281700Z 01007KT 340V040 CAVOK 33/25 Q1004 NOSIG


Station Type Date Time Source
OMAD Decoded METAR 2021/09/28 17:00 UTC NOAA

Abu Dhabi Bateen Airport, United Arab Emirates (OMAD) 24-26N 054-28E 3M
Sep 28, 2021 - 01:00 PM EDT / 2021.09.28 1700 UTC
Wind: from the N (010 degrees) at 8 MPH (7 KT) (direction variable):0
Visibility: greater than 7 mile(s):0
Temperature: 91 F (33 C)
Heat index: 103.5 F (39.7 C):1
Dew Point: 77 F (25 C)
Relative Humidity: 62%
Pressure (altimeter): 29.65 in. Hg (1004 hPa)
ob: OMAD 281700Z 01007KT 340V040 CAVOK 33/25 Q1004 NOSIG
cycle: 17

Station Type Date Time Source
OMAD TAF 2021/09/28 18:00 UTC NOAA

TAF OMAD 281700Z 2818/3000 02007KT 8000 NSC PROB30 2823/2904 4000 HZ
BECMG 2903/2905 10005KT
BECMG 2908/2910 33011KT
BECMG 2917/2919 05005KT

Example: see airport list